首页
METAR-TAF:

METAR-TAF

机场 :

Siler City, 北卡罗来纳州, 美国

纬度: 35-42-15N, 经度: 079-30-15W, 海拔: 187米

当前天气观测

该预报发布于34分钟前的01:00 UTC
风速8节,风向东北
温度 5°C
湿度 93%
气压 1021 hPa
能見度: 11.3公里
阴天层高于500英尺
大雨

METAR: KSCR 130100Z AUTO 04008KT 7SM +RA OVC005 05/04 A3016 RMK AO2 T00470043

时间: 20:34 (01:34 UTC)


TAF: 丢失

超过4000个机场的气象观测和天气预报(METAR&TAF报告)。

可查询的气象台以黄色和红色小点在地图上表示。

将鼠标移到小点上方,可查看气象台名称。

然后点击查看天气观测和预报。

如需切换地图:点击带黑十字的绿色按钮放大地图;点击带横线的绿色按钮缩小地图;或者点击绿色箭头查看邻近地区的地图。


METAR-TAF: